sensor_id;sensor_type;location;lat;lon;timestamp;P1;durP1;ratioP1;P2;durP2;ratioP2
41309;SDS011;27057;51.438;-0.010;2023-05-20T00:00:25;30.02;;;8.68;;
41309;SDS011;27057;51.438;-0.010;2023-05-20T00:02:53;21.08;;;7.78;;
41309;SDS011;27057;51.438;-0.010;2023-05-20T00:05:20;25.42;;;8.00;;
41309;SDS011;27057;51.438;-0.010;2023-05-20T00:07:48;21.30;;;7.05;;
41309;SDS011;27057;51.438;-0.010;2023-05-20T00:10:15;21.63;;;7.70;;
41309;SDS011;27057;51.438;-0.010;2023-05-20T00:12:43;19.20;;;6.35;;
41309;SDS011;27057;51.438;-0.010;2023-05-20T00:15:10;18.75;;;6.28;;
41309;SDS011;27057;51.438;-0.010;2023-05-20T00:17:38;20.52;;;6.82;;
41309;SDS011;27057;51.438;-0.010;2023-05-20T00:20:06;18.85;;;7.03;;
41309;SDS011;27057;51.438;-0.010;2023-05-20T00:22:34;21.48;;;6.45;;
41309;SDS011;27057;51.438;-0.010;2023-05-20T00:25:01;20.00;;;6.20;;
41309;SDS011;27057;51.438;-0.010;2023-05-20T00:27:29;15.50;;;6.75;;
41309;SDS011;27057;51.438;-0.010;2023-05-20T00:29:56;19.33;;;6.95;;
41309;SDS011;27057;51.438;-0.010;2023-05-20T00:32:24;16.38;;;6.45;;
41309;SDS011;27057;51.438;-0.010;2023-05-20T00:34:55;16.50;;;6.18;;
41309;SDS011;27057;51.438;-0.010;2023-05-20T00:37:24;19.88;;;6.38;;
41309;SDS011;27057;51.438;-0.010;2023-05-20T00:39:51;19.75;;;6.93;;
41309;SDS011;27057;51.438;-0.010;2023-05-20T00:42:22;29.80;;;7.05;;
41309;SDS011;27057;51.438;-0.010;2023-05-20T00:44:51;23.17;;;6.75;;
41309;SDS011;27057;51.438;-0.010;2023-05-20T00:47:21;21.08;;;6.72;;
41309;SDS011;27057;51.438;-0.010;2023-05-20T00:49:52;17.85;;;6.00;;
41309;SDS011;27057;51.438;-0.010;2023-05-20T00:52:20;19.17;;;6.80;;
41309;SDS011;27057;51.438;-0.010;2023-05-20T00:54:48;22.30;;;6.43;;
41309;SDS011;27057;51.438;-0.010;2023-05-20T00:57:16;22.48;;;6.70;;
41309;SDS011;27057;51.438;-0.010;2023-05-20T00:59:45;25.63;;;7.97;;
41309;SDS011;27057;51.438;-0.010;2023-05-20T01:02:13;22.42;;;7.35;;
41309;SDS011;27057;51.438;-0.010;2023-05-20T01:04:41;29.85;;;6.75;;
41309;SDS011;27057;51.438;-0.010;2023-05-20T01:07:14;25.67;;;7.40;;
41309;SDS011;27057;51.438;-0.010;2023-05-20T01:09:43;27.60;;;6.90;;
41309;SDS011;27057;51.438;-0.010;2023-05-20T01:12:20;20.80;;;6.13;;
41309;SDS011;27057;51.438;-0.010;2023-05-20T01:15:00;31.83;;;7.30;;
41309;SDS011;27057;51.438;-0.010;2023-05-20T01:17:31;20.67;;;7.07;;
41309;SDS011;27057;51.438;-0.010;2023-05-20T01:20:01;26.60;;;7.43;;
41309;SDS011;27057;51.438;-0.010;2023-05-20T01:22:29;24.35;;;7.80;;
41309;SDS011;27057;51.438;-0.010;2023-05-20T01:24:57;18.80;;;6.57;;
41309;SDS011;27057;51.438;-0.010;2023-05-20T01:27:25;18.30;;;6.28;;
41309;SDS011;27057;51.438;-0.010;2023-05-20T01:29:53;23.23;;;6.63;;
41309;SDS011;27057;51.438;-0.010;2023-05-20T01:32:40;24.17;;;7.40;;
41309;SDS011;27057;51.438;-0.010;2023-05-20T01:35:13;15.77;;;7.78;;
41309;SDS011;27057;51.438;-0.010;2023-05-20T01:37:42;32.50;;;7.35;;
41309;SDS011;27057;51.438;-0.010;2023-05-20T01:40:11;18.40;;;8.00;;
41309;SDS011;27057;51.438;-0.010;2023-05-20T01:42:42;16.63;;;6.68;;
41309;SDS011;27057;51.438;-0.010;2023-05-20T01:45:12;22.10;;;7.25;;
41309;SDS011;27057;51.438;-0.010;2023-05-20T01:47:40;18.25;;;7.00;;
41309;SDS011;27057;51.438;-0.010;2023-05-20T01:50:07;27.38;;;6.97;;
41309;SDS011;27057;51.438;-0.010;2023-05-20T01:52:35;18.60;;;7.20;;
41309;SDS011;27057;51.438;-0.010;2023-05-20T01:55:02;21.08;;;8.18;;
41309;SDS011;27057;51.438;-0.010;2023-05-20T01:57:30;19.00;;;7.45;;
41309;SDS011;27057;51.438;-0.010;2023-05-20T02:00:00;24.90;;;9.32;;
41309;SDS011;27057;51.438;-0.010;2023-05-20T02:02:39;27.73;;;7.47;;
41309;SDS011;27057;51.438;-0.010;2023-05-20T02:05:09;21.42;;;8.25;;
41309;SDS011;27057;51.438;-0.010;2023-05-20T02:07:37;23.77;;;7.50;;
41309;SDS011;27057;51.438;-0.010;2023-05-20T02:10:05;26.58;;;10.25;;
41309;SDS011;27057;51.438;-0.010;2023-05-20T02:12:33;27.13;;;8.57;;
41309;SDS011;27057;51.438;-0.010;2023-05-20T02:15:00;26.23;;;9.95;;
41309;SDS011;27057;51.438;-0.010;2023-05-20T02:17:28;23.30;;;7.38;;
41309;SDS011;27057;51.438;-0.010;2023-05-20T02:19:56;18.88;;;7.55;;
41309;SDS011;27057;51.438;-0.010;2023-05-20T02:22:25;33.92;;;8.13;;
41309;SDS011;27057;51.438;-0.010;2023-05-20T02:24:52;23.75;;;8.00;;
41309;SDS011;27057;51.438;-0.010;2023-05-20T02:27:20;24.15;;;8.18;;
41309;SDS011;27057;51.438;-0.010;2023-05-20T02:29:48;22.35;;;8.32;;
41309;SDS011;27057;51.438;-0.010;2023-05-20T02:32:17;17.80;;;7.30;;
41309;SDS011;27057;51.438;-0.010;2023-05-20T02:34:46;30.60;;;8.32;;
41309;SDS011;27057;51.438;-0.010;2023-05-20T02:37:16;19.30;;;7.55;;
41309;SDS011;27057;51.438;-0.010;2023-05-20T02:39:45;29.23;;;8.52;;
41309;SDS011;27057;51.438;-0.010;2023-05-20T02:42:13;27.75;;;8.23;;
41309;SDS011;27057;51.438;-0.010;2023-05-20T02:44:41;30.65;;;6.82;;
41309;SDS011;27057;51.438;-0.010;2023-05-20T02:47:12;33.45;;;10.18;;
41309;SDS011;27057;51.438;-0.010;2023-05-20T02:49:42;32.92;;;9.52;;
41309;SDS011;27057;51.438;-0.010;2023-05-20T02:52:10;27.02;;;8.82;;
41309;SDS011;27057;51.438;-0.010;2023-05-20T02:54:38;18.75;;;8.05;;
41309;SDS011;27057;51.438;-0.010;2023-05-20T02:57:06;30.92;;;9.23;;
41309;SDS011;27057;51.438;-0.010;2023-05-20T02:59:36;30.88;;;8.55;;
41309;SDS011;27057;51.438;-0.010;2023-05-20T03:02:04;27.60;;;8.30;;
41309;SDS011;27057;51.438;-0.010;2023-05-20T03:04:32;40.95;;;8.43;;
41309;SDS011;27057;51.438;-0.010;2023-05-20T03:07:05;29.27;;;8.20;;
41309;SDS011;27057;51.438;-0.010;2023-05-20T03:09:36;29.05;;;8.73;;
41309;SDS011;27057;51.438;-0.010;2023-05-20T03:12:04;26.88;;;7.72;;
41309;SDS011;27057;51.438;-0.010;2023-05-20T03:14:31;18.75;;;7.63;;
41309;SDS011;27057;51.438;-0.010;2023-05-20T03:16:59;22.52;;;8.05;;
41309;SDS011;27057;51.438;-0.010;2023-05-20T03:19:27;31.48;;;8.35;;
41309;SDS011;27057;51.438;-0.010;2023-05-20T03:21:55;35.22;;;8.80;;
41309;SDS011;27057;51.438;-0.010;2023-05-20T03:24:23;24.08;;;8.02;;
41309;SDS011;27057;51.438;-0.010;2023-05-20T03:26:52;21.40;;;8.02;;
41309;SDS011;27057;51.438;-0.010;2023-05-20T03:29:21;23.10;;;7.82;;
41309;SDS011;27057;51.438;-0.010;2023-05-20T03:31:51;19.45;;;8.07;;
41309;SDS011;27057;51.438;-0.010;2023-05-20T03:34:19;29.35;;;8.63;;
41309;SDS011;27057;51.438;-0.010;2023-05-20T03:36:49;21.67;;;8.25;;
41309;SDS011;27057;51.438;-0.010;2023-05-20T03:39:17;27.55;;;8.25;;
41309;SDS011;27057;51.438;-0.010;2023-05-20T03:41:45;19.98;;;7.70;;
41309;SDS011;27057;51.438;-0.010;2023-05-20T03:44:12;25.70;;;7.95;;
41309;SDS011;27057;51.438;-0.010;2023-05-20T03:46:40;26.90;;;8.57;;
41309;SDS011;27057;51.438;-0.010;2023-05-20T03:49:07;26.58;;;7.65;;
41309;SDS011;27057;51.438;-0.010;2023-05-20T03:51:35;26.52;;;8.45;;
41309;SDS011;27057;51.438;-0.010;2023-05-20T03:54:08;26.70;;;10.38;;
41309;SDS011;27057;51.438;-0.010;2023-05-20T03:56:35;28.90;;;9.25;;
41309;SDS011;27057;51.438;-0.010;2023-05-20T03:59:03;20.35;;;7.68;;
41309;SDS011;27057;51.438;-0.010;2023-05-20T04:01:31;24.67;;;9.80;;
41309;SDS011;27057;51.438;-0.010;2023-05-20T04:03:59;20.17;;;9.38;;
41309;SDS011;27057;51.438;-0.010;2023-05-20T04:06:28;26.55;;;8.68;;
41309;SDS011;27057;51.438;-0.010;2023-05-20T04:08:57;32.85;;;8.55;;
41309;SDS011;27057;51.438;-0.010;2023-05-20T04:11:25;21.13;;;8.88;;
41309;SDS011;27057;51.438;-0.010;2023-05-20T04:13:53;22.23;;;9.27;;
41309;SDS011;27057;51.438;-0.010;2023-05-20T04:16:20;32.65;;;10.25;;
41309;SDS011;27057;51.438;-0.010;2023-05-20T04:18:48;30.77;;;8.65;;
41309;SDS011;27057;51.438;-0.010;2023-05-20T04:21:17;22.85;;;10.30;;
41309;SDS011;27057;51.438;-0.010;2023-05-20T04:23:45;27.30;;;10.15;;
41309;SDS011;27057;51.438;-0.010;2023-05-20T04:26:13;29.58;;;11.73;;
41309;SDS011;27057;51.438;-0.010;2023-05-20T04:28:41;30.50;;;10.98;;
41309;SDS011;27057;51.438;-0.010;2023-05-20T04:31:08;34.60;;;11.52;;
41309;SDS011;27057;51.438;-0.010;2023-05-20T04:33:37;32.55;;;10.00;;
41309;SDS011;27057;51.438;-0.010;2023-05-20T04:36:09;27.88;;;10.90;;
41309;SDS011;27057;51.438;-0.010;2023-05-20T04:38:39;25.85;;;11.93;;
41309;SDS011;27057;51.438;-0.010;2023-05-20T04:41:08;34.00;;;10.60;;
41309;SDS011;27057;51.438;-0.010;2023-05-20T04:43:39;24.73;;;10.23;;
41309;SDS011;27057;51.438;-0.010;2023-05-20T04:46:07;20.25;;;10.63;;
41309;SDS011;27057;51.438;-0.010;2023-05-20T04:48:38;25.02;;;10.50;;
41309;SDS011;27057;51.438;-0.010;2023-05-20T04:51:05;25.40;;;10.02;;
41309;SDS011;27057;51.438;-0.010;2023-05-20T04:53:34;30.33;;;10.20;;
41309;SDS011;27057;51.438;-0.010;2023-05-20T04:56:02;29.02;;;10.00;;
41309;SDS011;27057;51.438;-0.010;2023-05-20T04:58:37;34.95;;;11.20;;
41309;SDS011;27057;51.438;-0.010;2023-05-20T05:01:06;37.30;;;11.32;;
41309;SDS011;27057;51.438;-0.010;2023-05-20T05:03:33;22.20;;;9.70;;
41309;SDS011;27057;51.438;-0.010;2023-05-20T05:06:12;30.20;;;10.38;;
41309;SDS011;27057;51.438;-0.010;2023-05-20T05:08:40;34.70;;;11.48;;
41309;SDS011;27057;51.438;-0.010;2023-05-20T05:11:19;23.85;;;11.07;;
41309;SDS011;27057;51.438;-0.010;2023-05-20T05:13:47;20.75;;;9.52;;
41309;SDS011;27057;51.438;-0.010;2023-05-20T05:16:17;32.00;;;10.27;;
41309;SDS011;27057;51.438;-0.010;2023-05-20T05:18:46;39.50;;;11.57;;
41309;SDS011;27057;51.438;-0.010;2023-05-20T05:21:16;30.52;;;9.98;;
41309;SDS011;27057;51.438;-0.010;2023-05-20T05:23:46;31.38;;;10.75;;
41309;SDS011;27057;51.438;-0.010;2023-05-20T05:26:17;29.05;;;10.60;;
41309;SDS011;27057;51.438;-0.010;2023-05-20T05:28:45;31.15;;;10.55;;
41309;SDS011;27057;51.438;-0.010;2023-05-20T05:31:13;26.33;;;9.95;;
41309;SDS011;27057;51.438;-0.010;2023-05-20T05:33:43;27.83;;;10.20;;
41309;SDS011;27057;51.438;-0.010;2023-05-20T05:36:11;30.27;;;11.05;;
41309;SDS011;27057;51.438;-0.010;2023-05-20T05:38:39;25.95;;;10.20;;
41309;SDS011;27057;51.438;-0.010;2023-05-20T05:41:07;31.65;;;11.02;;
41309;SDS011;27057;51.438;-0.010;2023-05-20T05:43:36;34.90;;;11.55;;
41309;SDS011;27057;51.438;-0.010;2023-05-20T05:46:04;29.15;;;11.27;;
41309;SDS011;27057;51.438;-0.010;2023-05-20T05:48:32;42.35;;;10.40;;
41309;SDS011;27057;51.438;-0.010;2023-05-20T05:51:03;34.25;;;11.93;;
41309;SDS011;27057;51.438;-0.010;2023-05-20T05:53:32;30.52;;;11.90;;
41309;SDS011;27057;51.438;-0.010;2023-05-20T05:56:00;24.02;;;10.70;;
41309;SDS011;27057;51.438;-0.010;2023-05-20T05:58:28;32.17;;;10.57;;
41309;SDS011;27057;51.438;-0.010;2023-05-20T06:00:56;39.15;;;11.57;;
41309;SDS011;27057;51.438;-0.010;2023-05-20T06:03:24;23.75;;;10.48;;
41309;SDS011;27057;51.438;-0.010;2023-05-20T06:05:52;36.00;;;11.57;;
41309;SDS011;27057;51.438;-0.010;2023-05-20T06:08:19;29.10;;;11.10;;
41309;SDS011;27057;51.438;-0.010;2023-05-20T06:10:47;27.08;;;10.05;;
41309;SDS011;27057;51.438;-0.010;2023-05-20T06:13:16;26.52;;;10.35;;
41309;SDS011;27057;51.438;-0.010;2023-05-20T06:15:45;32.33;;;10.70;;
41309;SDS011;27057;51.438;-0.010;2023-05-20T06:18:16;32.20;;;12.02;;
41309;SDS011;27057;51.438;-0.010;2023-05-20T06:20:44;28.55;;;10.40;;
41309;SDS011;27057;51.438;-0.010;2023-05-20T06:23:11;26.85;;;12.50;;
41309;SDS011;27057;51.438;-0.010;2023-05-20T06:25:56;39.50;;;12.15;;
41309;SDS011;27057;51.438;-0.010;2023-05-20T06:28:24;34.20;;;10.63;;
41309;SDS011;27057;51.438;-0.010;2023-05-20T06:30:55;32.83;;;12.13;;
41309;SDS011;27057;51.438;-0.010;2023-05-20T06:33:25;27.65;;;11.38;;
41309;SDS011;27057;51.438;-0.010;2023-05-20T06:35:58;27.10;;;11.15;;
41309;SDS011;27057;51.438;-0.010;2023-05-20T06:38:28;29.63;;;11.02;;
41309;SDS011;27057;51.438;-0.010;2023-05-20T06:40:55;29.17;;;11.52;;
41309;SDS011;27057;51.438;-0.010;2023-05-20T06:43:23;25.70;;;11.25;;
41309;SDS011;27057;51.438;-0.010;2023-05-20T06:46:03;30.55;;;10.93;;
41309;SDS011;27057;51.438;-0.010;2023-05-20T06:48:36;31.90;;;10.95;;
41309;SDS011;27057;51.438;-0.010;2023-05-20T06:51:08;28.13;;;10.15;;
41309;SDS011;27057;51.438;-0.010;2023-05-20T06:53:37;31.48;;;10.00;;
41309;SDS011;27057;51.438;-0.010;2023-05-20T06:56:05;32.90;;;10.27;;
41309;SDS011;27057;51.438;-0.010;2023-05-20T06:58:32;34.30;;;10.77;;
41309;SDS011;27057;51.438;-0.010;2023-05-20T07:01:00;29.85;;;11.45;;
41309;SDS011;27057;51.438;-0.010;2023-05-20T07:03:27;34.53;;;11.10;;
41309;SDS011;27057;51.438;-0.010;2023-05-20T07:05:56;40.05;;;11.20;;
41309;SDS011;27057;51.438;-0.010;2023-05-20T07:08:23;34.90;;;10.73;;
41309;SDS011;27057;51.438;-0.010;2023-05-20T07:10:54;32.80;;;10.40;;
41309;SDS011;27057;51.438;-0.010;2023-05-20T07:13:23;25.30;;;9.10;;
41309;SDS011;27057;51.438;-0.010;2023-05-20T07:15:52;31.35;;;9.15;;
41309;SDS011;27057;51.438;-0.010;2023-05-20T07:18:20;29.70;;;9.45;;
41309;SDS011;27057;51.438;-0.010;2023-05-20T07:20:52;23.92;;;9.65;;
41309;SDS011;27057;51.438;-0.010;2023-05-20T07:23:54;27.63;;;8.85;;
41309;SDS011;27057;51.438;-0.010;2023-05-20T07:26:22;26.35;;;9.50;;
41309;SDS011;27057;51.438;-0.010;2023-05-20T07:28:57;28.27;;;9.35;;
41309;SDS011;27057;51.438;-0.010;2023-05-20T07:31:32;32.17;;;9.57;;
41309;SDS011;27057;51.438;-0.010;2023-05-20T07:34:22;34.20;;;10.48;;
41309;SDS011;27057;51.438;-0.010;2023-05-20T07:36:50;27.38;;;9.25;;
41309;SDS011;27057;51.438;-0.010;2023-05-20T07:39:33;29.00;;;10.27;;
41309;SDS011;27057;51.438;-0.010;2023-05-20T07:42:06;35.50;;;10.18;;
41309;SDS011;27057;51.438;-0.010;2023-05-20T07:44:42;25.02;;;11.20;;
41309;SDS011;27057;51.438;-0.010;2023-05-20T07:47:29;30.23;;;9.80;;
41309;SDS011;27057;51.438;-0.010;2023-05-20T07:50:11;25.67;;;9.75;;
41309;SDS011;27057;51.438;-0.010;2023-05-20T07:52:44;38.20;;;8.50;;
41309;SDS011;27057;51.438;-0.010;2023-05-20T07:56:09;30.48;;;9.40;;
41309;SDS011;27057;51.438;-0.010;2023-05-20T07:58:27;33.53;;;9.52;;
41309;SDS011;27057;51.438;-0.010;2023-05-20T08:01:03;27.42;;;9.68;;
41309;SDS011;27057;51.438;-0.010;2023-05-20T08:03:34;31.08;;;9.45;;
41309;SDS011;27057;51.438;-0.010;2023-05-20T08:06:09;30.27;;;9.32;;
41309;SDS011;27057;51.438;-0.010;2023-05-20T08:09:12;21.95;;;7.72;;
41309;SDS011;27057;51.438;-0.010;2023-05-20T08:11:53;27.25;;;9.32;;
41309;SDS011;27057;51.438;-0.010;2023-05-20T08:14:27;26.25;;;8.40;;
41309;SDS011;27057;51.438;-0.010;2023-05-20T08:17:24;26.05;;;8.18;;
41309;SDS011;27057;51.438;-0.010;2023-05-20T08:20:14;26.92;;;8.63;;
41309;SDS011;27057;51.438;-0.010;2023-05-20T08:22:50;36.08;;;9.20;;
41309;SDS011;27057;51.438;-0.010;2023-05-20T08:25:18;33.78;;;8.55;;
41309;SDS011;27057;51.438;-0.010;2023-05-20T08:27:46;33.47;;;9.82;;
41309;SDS011;27057;51.438;-0.010;2023-05-20T08:30:15;26.25;;;10.32;;
41309;SDS011;27057;51.438;-0.010;2023-05-20T08:32:43;31.15;;;10.88;;
41309;SDS011;27057;51.438;-0.010;2023-05-20T08:35:20;26.77;;;9.27;;
41309;SDS011;27057;51.438;-0.010;2023-05-20T08:37:57;35.13;;;11.73;;
41309;SDS011;27057;51.438;-0.010;2023-05-20T08:40:54;34.83;;;13.23;;
41309;SDS011;27057;51.438;-0.010;2023-05-20T08:43:33;29.70;;;11.23;;
41309;SDS011;27057;51.438;-0.010;2023-05-20T08:46:02;27.42;;;11.32;;
41309;SDS011;27057;51.438;-0.010;2023-05-20T08:48:38;32.40;;;10.82;;
41309;SDS011;27057;51.438;-0.010;2023-05-20T08:51:06;26.35;;;11.80;;
41309;SDS011;27057;51.438;-0.010;2023-05-20T08:53:37;32.05;;;11.77;;
41309;SDS011;27057;51.438;-0.010;2023-05-20T08:56:10;21.80;;;9.38;;
41309;SDS011;27057;51.438;-0.010;2023-05-20T08:58:40;23.95;;;9.65;;
41309;SDS011;27057;51.438;-0.010;2023-05-20T09:01:08;31.33;;;11.90;;
41309;SDS011;27057;51.438;-0.010;2023-05-20T09:03:37;33.53;;;10.23;;
41309;SDS011;27057;51.438;-0.010;2023-05-20T09:06:05;29.58;;;8.73;;
41309;SDS011;27057;51.438;-0.010;2023-05-20T09:08:34;32.60;;;10.05;;
41309;SDS011;27057;51.438;-0.010;2023-05-20T09:11:02;32.20;;;9.13;;
41309;SDS011;27057;51.438;-0.010;2023-05-20T09:13:39;29.37;;;11.23;;
41309;SDS011;27057;51.438;-0.010;2023-05-20T09:16:13;36.70;;;11.55;;
41309;SDS011;27057;51.438;-0.010;2023-05-20T09:18:41;24.95;;;9.00;;
41309;SDS011;27057;51.438;-0.010;2023-05-20T09:21:09;22.67;;;8.45;;
41309;SDS011;27057;51.438;-0.010;2023-05-20T09:23:37;21.20;;;9.25;;
41309;SDS011;27057;51.438;-0.010;2023-05-20T09:26:07;37.28;;;9.55;;
41309;SDS011;27057;51.438;-0.010;2023-05-20T09:28:38;28.83;;;9.40;;
41309;SDS011;27057;51.438;-0.010;2023-05-20T09:31:07;22.77;;;8.13;;
41309;SDS011;27057;51.438;-0.010;2023-05-20T09:33:36;24.38;;;8.57;;
41309;SDS011;27057;51.438;-0.010;2023-05-20T09:36:04;30.48;;;7.97;;
41309;SDS011;27057;51.438;-0.010;2023-05-20T09:38:37;25.15;;;8.00;;
41309;SDS011;27057;51.438;-0.010;2023-05-20T09:41:10;27.23;;;7.93;;
41309;SDS011;27057;51.438;-0.010;2023-05-20T09:43:39;23.60;;;9.05;;
41309;SDS011;27057;51.438;-0.010;2023-05-20T09:46:08;16.30;;;7.05;;
41309;SDS011;27057;51.438;-0.010;2023-05-20T09:48:39;23.55;;;5.93;;
41309;SDS011;27057;51.438;-0.010;2023-05-20T09:51:07;27.15;;;5.97;;
41309;SDS011;27057;51.438;-0.010;2023-05-20T09:53:35;31.95;;;7.30;;
41309;SDS011;27057;51.438;-0.010;2023-05-20T09:56:03;15.10;;;4.60;;
41309;SDS011;27057;51.438;-0.010;2023-05-20T09:58:33;17.52;;;4.78;;
41309;SDS011;27057;51.438;-0.010;2023-05-20T10:01:04;17.55;;;4.82;;
41309;SDS011;27057;51.438;-0.010;2023-05-20T10:03:33;16.92;;;4.65;;
41309;SDS011;27057;51.438;-0.010;2023-05-20T10:06:09;19.70;;;4.95;;
41309;SDS011;27057;51.438;-0.010;2023-05-20T10:19:56;12.00;;;4.38;;
41309;SDS011;27057;51.438;-0.010;2023-05-20T10:22:30;26.38;;;5.78;;
41309;SDS011;27057;51.438;-0.010;2023-05-20T10:25:06;14.43;;;4.00;;
41309;SDS011;27057;51.438;-0.010;2023-05-20T10:27:45;13.98;;;4.07;;
41309;SDS011;27057;51.438;-0.010;2023-05-20T10:30:15;22.88;;;4.80;;
41309;SDS011;27057;51.438;-0.010;2023-05-20T10:32:53;20.33;;;4.25;;
41309;SDS011;27057;51.438;-0.010;2023-05-20T10:35:26;18.58;;;5.07;;
41309;SDS011;27057;51.438;-0.010;2023-05-20T10:38:09;26.33;;;5.18;;
41309;SDS011;27057;51.438;-0.010;2023-05-20T10:40:38;11.27;;;4.07;;
41309;SDS011;27057;51.438;-0.010;2023-05-20T10:45:50;19.70;;;4.97;;
41309;SDS011;27057;51.438;-0.010;2023-05-20T10:48:20;14.70;;;4.05;;
41309;SDS011;27057;51.438;-0.010;2023-05-20T10:50:54;12.38;;;4.32;;
41309;SDS011;27057;51.438;-0.010;2023-05-20T10:53:26;14.25;;;3.88;;
41309;SDS011;27057;51.438;-0.010;2023-05-20T10:56:00;16.05;;;4.35;;
41309;SDS011;27057;51.438;-0.010;2023-05-20T10:58:36;53.45;;;10.50;;
41309;SDS011;27057;51.438;-0.010;2023-05-20T11:01:06;13.90;;;3.95;;
41309;SDS011;27057;51.438;-0.010;2023-05-20T11:03:34;24.48;;;5.72;;
41309;SDS011;27057;51.438;-0.010;2023-05-20T11:06:09;20.08;;;6.25;;
41309;SDS011;27057;51.438;-0.010;2023-05-20T11:08:44;15.77;;;4.30;;
41309;SDS011;27057;51.438;-0.010;2023-05-20T11:11:12;10.30;;;3.65;;
41309;SDS011;27057;51.438;-0.010;2023-05-20T11:13:40;15.70;;;3.67;;
41309;SDS011;27057;51.438;-0.010;2023-05-20T11:16:08;13.00;;;3.88;;
41309;SDS011;27057;51.438;-0.010;2023-05-20T11:18:35;19.40;;;4.95;;
41309;SDS011;27057;51.438;-0.010;2023-05-20T11:21:03;12.20;;;3.95;;
41309;SDS011;27057;51.438;-0.010;2023-05-20T11:23:31;14.30;;;4.95;;
41309;SDS011;27057;51.438;-0.010;2023-05-20T11:25:59;21.52;;;4.40;;
41309;SDS011;27057;51.438;-0.010;2023-05-20T11:28:28;15.45;;;3.97;;
41309;SDS011;27057;51.438;-0.010;2023-05-20T11:30:56;13.90;;;3.90;;
41309;SDS011;27057;51.438;-0.010;2023-05-20T11:33:25;18.98;;;3.22;;
41309;SDS011;27057;51.438;-0.010;2023-05-20T11:35:56;13.13;;;4.20;;
41309;SDS011;27057;51.438;-0.010;2023-05-20T11:38:23;12.40;;;3.15;;
41309;SDS011;27057;51.438;-0.010;2023-05-20T11:40:52;14.57;;;4.03;;
41309;SDS011;27057;51.438;-0.010;2023-05-20T11:43:21;13.23;;;3.92;;
41309;SDS011;27057;51.438;-0.010;2023-05-20T11:45:53;8.15;;;3.00;;
41309;SDS011;27057;51.438;-0.010;2023-05-20T11:48:22;14.25;;;3.42;;
41309;SDS011;27057;51.438;-0.010;2023-05-20T11:50:51;13.50;;;5.10;;
41309;SDS011;27057;51.438;-0.010;2023-05-20T11:53:21;11.48;;;3.47;;
41309;SDS011;27057;51.438;-0.010;2023-05-20T11:55:50;10.63;;;4.32;;
41309;SDS011;27057;51.438;-0.010;2023-05-20T11:58:22;8.45;;;3.40;;
41309;SDS011;27057;51.438;-0.010;2023-05-20T12:00:51;12.30;;;3.50;;
41309;SDS011;27057;51.438;-0.010;2023-05-20T12:03:27;14.33;;;3.83;;
41309;SDS011;27057;51.438;-0.010;2023-05-20T12:05:55;12.52;;;3.50;;
41309;SDS011;27057;51.438;-0.010;2023-05-20T12:08:23;10.90;;;3.22;;
41309;SDS011;27057;51.438;-0.010;2023-05-20T12:10:50;15.80;;;2.90;;
41309;SDS011;27057;51.438;-0.010;2023-05-20T12:13:17;18.00;;;3.92;;
41309;SDS011;27057;51.438;-0.010;2023-05-20T12:15:45;13.80;;;3.55;;
41309;SDS011;27057;51.438;-0.010;2023-05-20T12:18:13;15.40;;;4.05;;
41309;SDS011;27057;51.438;-0.010;2023-05-20T12:20:41;13.77;;;4.32;;
41309;SDS011;27057;51.438;-0.010;2023-05-20T12:23:08;21.08;;;3.80;;
41309;SDS011;27057;51.438;-0.010;2023-05-20T12:25:36;14.32;;;3.60;;
41309;SDS011;27057;51.438;-0.010;2023-05-20T12:28:03;10.90;;;3.25;;
41309;SDS011;27057;51.438;-0.010;2023-05-20T12:30:34;9.45;;;3.42;;
41309;SDS011;27057;51.438;-0.010;2023-05-20T12:33:02;12.77;;;2.95;;
41309;SDS011;27057;51.438;-0.010;2023-05-20T12:35:39;21.35;;;3.65;;
41309;SDS011;27057;51.438;-0.010;2023-05-20T12:38:08;7.20;;;3.25;;
41309;SDS011;27057;51.438;-0.010;2023-05-20T12:40:35;10.10;;;3.05;;
41309;SDS011;27057;51.438;-0.010;2023-05-20T12:43:04;16.27;;;4.80;;
41309;SDS011;27057;51.438;-0.010;2023-05-20T12:45:31;9.75;;;3.10;;
41309;SDS011;27057;51.438;-0.010;2023-05-20T12:47:59;12.30;;;3.17;;
41309;SDS011;27057;51.438;-0.010;2023-05-20T12:50:27;10.40;;;3.40;;
41309;SDS011;27057;51.438;-0.010;2023-05-20T12:52:55;14.35;;;4.45;;
41309;SDS011;27057;51.438;-0.010;2023-05-20T12:55:22;10.10;;;3.25;;
41309;SDS011;27057;51.438;-0.010;2023-05-20T12:57:50;6.82;;;2.63;;
41309;SDS011;27057;51.438;-0.010;2023-05-20T13:00:17;23.33;;;4.03;;
41309;SDS011;27057;51.438;-0.010;2023-05-20T13:02:45;11.18;;;3.53;;
41309;SDS011;27057;51.438;-0.010;2023-05-20T13:05:15;10.68;;;2.70;;
41309;SDS011;27057;51.438;-0.010;2023-05-20T13:07:43;13.43;;;3.20;;
41309;SDS011;27057;51.438;-0.010;2023-05-20T13:10:11;16.95;;;3.53;;
41309;SDS011;27057;51.438;-0.010;2023-05-20T13:12:39;17.45;;;2.92;;
41309;SDS011;27057;51.438;-0.010;2023-05-20T13:15:11;10.50;;;2.92;;
41309;SDS011;27057;51.438;-0.010;2023-05-20T13:17:40;12.70;;;2.63;;
41309;SDS011;27057;51.438;-0.010;2023-05-20T13:20:10;6.72;;;2.72;;
41309;SDS011;27057;51.438;-0.010;2023-05-20T13:22:38;9.95;;;3.08;;
41309;SDS011;27057;51.438;-0.010;2023-05-20T13:25:08;14.73;;;3.88;;
41309;SDS011;27057;51.438;-0.010;2023-05-20T13:27:36;8.90;;;2.70;;
41309;SDS011;27057;51.438;-0.010;2023-05-20T13:30:04;7.50;;;2.60;;
41309;SDS011;27057;51.438;-0.010;2023-05-20T13:32:32;16.83;;;4.07;;
41309;SDS011;27057;51.438;-0.010;2023-05-20T13:35:00;6.25;;;2.80;;
41309;SDS011;27057;51.438;-0.010;2023-05-20T13:37:27;13.60;;;2.15;;
41309;SDS011;27057;51.438;-0.010;2023-05-20T13:39:56;10.90;;;3.13;;
41309;SDS011;27057;51.438;-0.010;2023-05-20T13:42:23;8.88;;;2.50;;
41309;SDS011;27057;51.438;-0.010;2023-05-20T13:44:51;12.98;;;2.45;;
41309;SDS011;27057;51.438;-0.010;2023-05-20T13:47:18;13.65;;;3.13;;
41309;SDS011;27057;51.438;-0.010;2023-05-20T13:49:51;15.00;;;3.13;;
41309;SDS011;27057;51.438;-0.010;2023-05-20T13:52:22;10.80;;;2.65;;
41309;SDS011;27057;51.438;-0.010;2023-05-20T13:54:50;9.82;;;2.20;;
41309;SDS011;27057;51.438;-0.010;2023-05-20T13:57:18;10.18;;;2.63;;
41309;SDS011;27057;51.438;-0.010;2023-05-20T13:59:45;6.65;;;2.28;;
41309;SDS011;27057;51.438;-0.010;2023-05-20T14:02:13;6.32;;;2.65;;
41309;SDS011;27057;51.438;-0.010;2023-05-20T14:04:41;7.05;;;2.08;;
41309;SDS011;27057;51.438;-0.010;2023-05-20T14:07:10;10.00;;;2.45;;
41309;SDS011;27057;51.438;-0.010;2023-05-20T14:09:38;7.75;;;2.95;;
41309;SDS011;27057;51.438;-0.010;2023-05-20T14:12:06;8.80;;;2.63;;
41309;SDS011;27057;51.438;-0.010;2023-05-20T14:14:36;8.27;;;2.65;;
41309;SDS011;27057;51.438;-0.010;2023-05-20T14:17:04;11.30;;;3.13;;
41309;SDS011;27057;51.438;-0.010;2023-05-20T14:19:31;10.35;;;2.22;;
41309;SDS011;27057;51.438;-0.010;2023-05-20T14:21:59;18.40;;;3.08;;
41309;SDS011;27057;51.438;-0.010;2023-05-20T14:24:27;12.00;;;2.67;;
41309;SDS011;27057;51.438;-0.010;2023-05-20T14:26:55;7.60;;;3.08;;
41309;SDS011;27057;51.438;-0.010;2023-05-20T14:29:23;9.05;;;2.60;;
41309;SDS011;27057;51.438;-0.010;2023-05-20T14:31:51;8.52;;;2.60;;
41309;SDS011;27057;51.438;-0.010;2023-05-20T14:34:21;10.25;;;3.38;;
41309;SDS011;27057;51.438;-0.010;2023-05-20T14:36:52;18.00;;;2.60;;
41309;SDS011;27057;51.438;-0.010;2023-05-20T14:39:20;11.23;;;2.65;;
41309;SDS011;27057;51.438;-0.010;2023-05-20T14:41:47;11.73;;;2.65;;
41309;SDS011;27057;51.438;-0.010;2023-05-20T14:44:15;8.35;;;2.20;;
41309;SDS011;27057;51.438;-0.010;2023-05-20T14:46:43;6.18;;;2.42;;
41309;SDS011;27057;51.438;-0.010;2023-05-20T14:49:10;4.15;;;2.13;;